Warren, AR (71671)

5:25 AM CDT on March 30, 2015 (GMT -0500)
Monticello Municipal-Ellis | | Change Station
CLOSE
Current Station
Airport
Location: Monticello,
Elevation: 269 ft
Nearby Weather Stations
Active Advisory: Flood Warning

Elev 269 ft 33.64 °N, 91.76 °W | Updated 32 minutes ago

Overcast
Overcast
62 °F
Feels Like 62 °F
N
4
Wind Variable Wind from NW

Today
High -- | Low -- °F
--% Chance of Precip.
Yesterday
High -- | Low -- °F
Precip. -- in
6:58 AM 7:27 PM
Waxing Gibbous, 78% visible
Pressure 30.13 in
Visibility 10.0 miles
Clouds Scattered Clouds 5500 ft
Mostly Cloudy 7000 ft
Dew Point 57 °F
Humidity 84%
Rainfall 0.04 in
Snow Depth Not available.
UV 0 out of 12
Pollen 10.30 out of 12
Air Quality Not available.
Flu Activity Not available.
METAR KLLQ 300953Z AUTO 32003KT 10SM SCT055 BKN070 17/14 A3014 RMK AO2 SLP203 T01670139

More Conditions Fewer Conditions

Pressure 30.13 in
Visibility 10.0 miles
Clouds Scattered Clouds 5500 ft
Mostly Cloudy 7000 ft
Dew Point 57 °F
Humidity 84%
Rainfall 0.04 in
Snow Depth Not available.
UV 0 out of 12
Pollen 10.30 out of 12
Air Quality Not available.
Flu Activity Not available.
METAR KLLQ 300953Z AUTO 32003KT 10SM SCT055 BKN070 17/14 A3014 RMK AO2 SLP203 T01670139

More Conditions Fewer Conditions

10-Day Weather Forecast

Almanac

Astronomy

Mar. 30, 2015 Rise Set
Actual Time
Civil Twilight
Nautical Twilight
Astronomical Twilight
Moon
Length of Visible Light
Length of Day
Tomorrow will be .
, % of the Moon is Illuminated

Today's Extremes

State Highs State Lows

Community

WunderPhotos

Upload Photos

1,809,454 photos uploaded!

WunderBlogs® & News

Nearby

Air Quality

  Air Quality AQ Index Pollutant
Not available.

Snow Depth

Station Depth Elevation

Earthquake Activity

City Distance Mag. Time & Date
Minimum magnitude displayed is 2.5.

Coastal Water Temperatures

Place Temperature

Stations

Nearby Weather Stations

Station Location Temp. Windchill Dew Point Humidity Wind Precip. Elev Updated Type
                   
Flood Warning
Statement as of 9:08 PM CDT on March 29, 2015

The Flood Warning continues for
the Ouachita River at Thatcher l&d.
* Until further notice... or until the warning is cancelled.
* At 7:00 am Sunday the stage was 87.1 feet.
* Minor flooding is occurring and minor flooding is forecast.
* Flood stage is 79.0 feet.
* Forecast... the river will continue to fall to a stage of 86.4 feet
by Tuesday morning.
* Impact... at 85.0 feet... there may be some County roads along the
river flooded, requiring lengthy detours. River is high and swift,
boaters should be very cautious. Access to many oil and gas rigs
will be by boat only.




             Fld observed forecast 7 am
location stg stg day time Mon Tue Wed Thu Fri

Ouachita River
Thatcher l 79 87.1 sun 07 am 86.8 86.4 85.7 85.0 84.2




Lat... Lon 3311 9223 3323 9236 3329 9261 3338 9247
3333 9226 3322 9212